Aérodrome :
LOGIN :

S'inscrire | Disclaimer

   EN    FR    IT 

 










Légende :    VFR   VFR Marginal   IFR   IFR Intensif   IFR Très Intensif
Visi : 
Plafond : 
>= 8 km
>= 3000ft
5 à 8 km
1000 à 3000 ft
1500m à 5 km
500 à 1000 ft
800 à 1500m
200 à 500 ft
< 800m
< 200 ft
Symboles :   Orages  Brouillard  Fortes neiges  Fortes précipitations  Vent > 20 kt
SIGMETs :   Divers  Orages  Givrage  Turbulence  Onde Orograph.  Cendres Volcan.







- Altitude de l'aérodrome : 230 ft


ETHB - Buckeburg Army

DERNIER METAR :
  • 231748Z 29020KT 9999 BKN010 BKN020 12/10 Q1017 GRN GRN TEMPO YLO

METARs EXPIRÉS :
  • 231740Z 29020KT 6000 -RADZ BKN010 BKN020 12/10 Q1017 GRN GRN TEMPO YLO
  • 231720Z 29019KT 9999 BKN010 BKN020 12/10 Q1016 GRN GRN TEMPO YLO
  • 231620Z 29021KT 9999 BKN010 BKN020 12/10 Q1016 GRN GRN TEMPO YLO
  • 231549Z 29019KT 9000 -DZ FEW006 BKN012 12/11 Q1016 GRN GRN TEMPO YLO
  • 231539Z 29017G28KT 9000 -DZ BKN008 12/10 Q1016 GRN GRN TEMPO YLO
  • 231520Z 29018KT 9000 -DZ FEW006 BKN009 12/11 Q1016 REDZ GRN GRN TEMPO YLO

TAF TAF ETHB
Valide du 23 à 17h jusqu'au 24 à 02h UTC


231600Z 2317/2402 28017G27KT 7000 NSW SCT008 BKN012
TEMPO 2317/2402 29020G32KT 2000 RADZ BKN006 BKN010
Pas de NOTAMs connus pour ce terrain.



MET'MAP, la Météo Aéronautique d'un coup d'oeil ! - Copyright ORBIFLY Décembre 2007 - Disclaimer

ORBIFLY MET'MAP TEAM :

Programmation & Développement : Alexandra Zaïnal
Conception & Développement : Baudouin d'Aumeries
Co-Programmation & Développement : Marc-Olivier Méhu
Soutien technique & logistique : Manuel Goepfert

Contact : metmap@orbifly.com




SOURCES & CREDITS :

   NOAA